createdAt,value
2023-02-19T00:02:45.000Z,7.93
2023-02-19T00:13:09.952Z,7.90
2023-02-19T00:23:35.046Z,7.91
2023-02-19T00:34:01.657Z,7.88
2023-02-19T00:44:26.448Z,7.90
2023-02-19T00:54:51.412Z,7.85
2023-02-19T01:05:16.267Z,7.88
2023-02-19T01:15:41.135Z,7.90
2023-02-19T01:26:08.472Z,7.85
2023-02-19T01:36:34.414Z,7.79
2023-02-19T01:46:58.608Z,7.91
2023-02-19T01:57:28.416Z,8.00
2023-02-19T02:08:10.995Z,8.02
2023-02-19T02:18:47.134Z,8.09
2023-02-19T02:29:31.626Z,8.06
2023-02-19T02:39:59.383Z,7.91
2023-02-19T02:50:29.332Z,7.84
2023-02-19T03:01:15.883Z,7.96
2023-02-19T03:12:02.882Z,8.06
2023-02-19T03:22:30.800Z,8.19
2023-02-19T03:32:58.639Z,8.34
2023-02-19T03:43:30.600Z,8.60
2023-02-19T03:54:11.528Z,8.57
2023-02-19T04:04:39.609Z,8.34
2023-02-19T04:15:10.149Z,8.34
2023-02-19T04:25:37.122Z,8.37
2023-02-19T04:36:01.821Z,8.40
2023-02-19T04:46:26.057Z,8.35
2023-02-19T04:56:50.533Z,8.48
2023-02-19T05:07:14.772Z,8.52
2023-02-19T05:17:38.996Z,8.50
2023-02-19T05:28:16.881Z,8.35
2023-02-19T05:38:41.724Z,8.04
2023-02-19T05:49:06.166Z,7.71
2023-02-19T05:59:30.373Z,7.61
2023-02-19T06:09:55.558Z,7.79
2023-02-19T06:20:20.059Z,8.04
2023-02-19T06:30:44.264Z,8.35
2023-02-19T06:41:10.067Z,8.43
2023-02-19T06:51:34.824Z,8.40
2023-02-19T07:01:59.208Z,8.29
2023-02-19T07:12:23.615Z,8.24
2023-02-19T07:22:48.441Z,8.29
2023-02-19T07:33:13.311Z,8.40
2023-02-19T07:43:39.408Z,8.50
2023-02-19T07:54:04.704Z,8.45
2023-02-19T08:04:29.758Z,8.31
2023-02-19T08:14:54.610Z,8.20
2023-02-19T08:25:19.378Z,8.25
2023-02-19T08:35:44.895Z,8.36
2023-02-19T08:46:11.314Z,8.36
2023-02-19T08:56:35.657Z,8.31
2023-02-19T09:07:00.599Z,8.30
2023-02-19T09:17:25.409Z,8.22
2023-02-19T09:27:50.306Z,8.16
2023-02-19T09:38:15.090Z,8.05
2023-02-19T09:48:40.127Z,7.86
2023-02-19T09:59:06.029Z,7.78
2023-02-19T10:09:31.983Z,7.75
2023-02-19T10:19:57.449Z,7.76
2023-02-19T10:30:27.734Z,7.69
2023-02-19T10:40:57.754Z,7.55
2023-02-19T10:51:30.415Z,7.53
2023-02-19T11:01:56.850Z,7.50
2023-02-19T11:12:26.858Z,7.35
2023-02-19T11:22:51.374Z,7.34
2023-02-19T11:33:26.979Z,7.41
2023-02-19T11:44:03.761Z,7.42
2023-02-19T11:54:43.172Z,7.37
2023-02-19T12:05:19.521Z,7.25
2023-02-19T12:16:00.746Z,7.20
2023-02-19T12:26:29.543Z,7.09
2023-02-19T12:37:06.085Z,6.95
2023-02-19T12:47:35.106Z,6.72
2023-02-19T12:58:04.360Z,6.51
2023-02-19T13:08:36.602Z,6.32
2023-02-19T13:19:03.838Z,6.19
2023-02-19T13:29:41.993Z,6.02
2023-02-19T13:40:19.279Z,5.82
2023-02-19T13:50:43.591Z,5.72
2023-02-19T14:01:09.921Z,5.74
2023-02-19T14:12:05.876Z,5.79
2023-02-19T14:23:05.090Z,5.67
2023-02-19T14:33:31.154Z,5.62
2023-02-19T14:43:58.446Z,5.37
2023-02-19T14:54:35.636Z,5.33
2023-02-19T15:05:00.033Z,5.39
2023-02-19T15:15:29.514Z,5.39
2023-02-19T15:25:53.957Z,5.34
2023-02-19T15:36:27.132Z,5.34
2023-02-19T15:46:52.012Z,5.44
2023-02-19T15:57:21.823Z,5.31
2023-02-19T16:07:46.062Z,5.30
2023-02-19T16:18:14.989Z,5.21
2023-02-19T16:28:40.998Z,5.16
2023-02-19T16:39:18.469Z,5.19
2023-02-19T16:49:43.627Z,5.16
2023-02-19T17:00:09.346Z,4.98
2023-02-19T17:10:33.604Z,4.85
2023-02-19T17:21:02.012Z,4.84
2023-02-19T17:31:25.604Z,4.83
2023-02-19T17:41:50.090Z,4.84
2023-02-19T17:52:17.026Z,4.96
2023-02-19T18:02:41.434Z,4.95
2023-02-19T18:13:05.718Z,5.04
2023-02-19T18:23:30.089Z,4.92
2023-02-19T18:33:54.293Z,4.96
2023-02-19T18:44:20.209Z,5.06
2023-02-19T18:54:44.536Z,5.09
2023-02-19T19:05:09.062Z,5.19
2023-02-19T19:15:41.768Z,5.25
2023-02-19T19:26:06.741Z,5.32
2023-02-19T19:36:31.102Z,5.25
2023-02-19T19:46:55.761Z,5.10
2023-02-19T19:57:20.218Z,4.93
2023-02-19T20:07:44.851Z,4.86
2023-02-19T20:18:09.109Z,4.80
2023-02-19T20:28:33.462Z,4.70
2023-02-19T20:38:57.843Z,4.75
2023-02-19T20:49:24.257Z,4.71
2023-02-19T20:59:48.486Z,4.59
2023-02-19T21:10:13.150Z,4.66
2023-02-19T21:20:37.379Z,4.47
2023-02-19T21:31:02.248Z,4.36
2023-02-19T21:41:26.890Z,4.33
2023-02-19T21:51:51.752Z,4.35
2023-02-19T22:02:19.211Z,4.40
2023-02-19T22:12:43.615Z,4.35
2023-02-19T22:23:08.393Z,4.28
2023-02-19T22:33:33.216Z,4.30
2023-02-19T22:43:58.871Z,4.40
2023-02-19T22:54:26.378Z,4.52
2023-02-19T23:04:51.440Z,4.48
2023-02-19T23:15:15.747Z,4.35
2023-02-19T23:25:39.923Z,4.36
2023-02-19T23:36:04.701Z,4.47
2023-02-19T23:46:29.014Z,4.63
2023-02-19T23:56:53.317Z,4.71
